地図

経路データ

SID SEASON NUMBER BASIN SUBBASIN NAME ISO_TIME NATURE LAT LON WMO_WIND WMO_PRES WMO_AGENCY TRACK_TYPE DIST2LAND LANDFALL IFLAG USA_AGENCY USA_ATCF_ID USA_LAT USA_LON USA_RECORD USA_STATUS USA_WIND USA_PRES USA_SSHS USA_R34_NE USA_R34_SE USA_R34_SW USA_R34_NW USA_R50_NE USA_R50_SE USA_R50_SW USA_R50_NW USA_R64_NE USA_R64_SE USA_R64_SW USA_R64_NW USA_POCI USA_ROCI USA_RMW USA_EYE TOKYO_LAT TOKYO_LON TOKYO_GRADE TOKYO_WIND TOKYO_PRES TOKYO_R50_DIR TOKYO_R50_LONG TOKYO_R50_SHORT TOKYO_R30_DIR TOKYO_R30_LONG TOKYO_R30_SHORT TOKYO_LAND CMA_LAT CMA_LON CMA_CAT CMA_WIND CMA_PRES HKO_LAT HKO_LON HKO_CAT HKO_WIND HKO_PRES NEWDELHI_LAT NEWDELHI_LON NEWDELHI_GRADE NEWDELHI_WIND NEWDELHI_PRES NEWDELHI_CI NEWDELHI_DP NEWDELHI_POCI REUNION_LAT REUNION_LON REUNION_TYPE REUNION_WIND REUNION_PRES REUNION_TNUM REUNION_CI REUNION_RMW REUNION_R34_NE REUNION_R34_SE REUNION_R34_SW REUNION_R34_NW REUNION_R50_NE REUNION_R50_SE REUNION_R50_SW REUNION_R50_NW REUNION_R64_NE REUNION_R64_SE REUNION_R64_SW REUNION_R64_NW BOM_LAT BOM_LON BOM_TYPE BOM_WIND BOM_PRES BOM_TNUM BOM_CI BOM_RMW BOM_R34_NE BOM_R34_SE BOM_R34_SW BOM_R34_NW BOM_R50_NE BOM_R50_SE BOM_R50_SW BOM_R50_NW BOM_R64_NE BOM_R64_SE BOM_R64_SW BOM_R64_NW BOM_ROCI BOM_POCI BOM_EYE BOM_POS_METHOD BOM_PRES_METHOD NADI_LAT NADI_LON NADI_CAT NADI_WIND NADI_PRES WELLINGTON_LAT WELLINGTON_LON WELLINGTON_WIND WELLINGTON_PRES DS824_LAT DS824_LON DS824_STAGE DS824_WIND DS824_PRES TD9636_LAT TD9636_LON TD9636_STAGE TD9636_WIND TD9636_PRES TD9635_LAT TD9635_LON TD9635_WIND TD9635_PRES TD9635_ROCI NEUMANN_LAT NEUMANN_LON NEUMANN_CLASS NEUMANN_WIND NEUMANN_PRES MLC_LAT MLC_LON MLC_CLASS MLC_WIND MLC_PRES USA_GUST BOM_GUST BOM_GUST_PER REUNION_GUST REUNION_GUST_PER USA_SEAHGT USA_SEARAD_NE USA_SEARAD_SE USA_SEARAD_SW USA_SEARAD_NW STORM_SPEED STORM_DIR
1943351N08137 1943 87 WP MM NOT_NAMED 1943-12-17 00:00:00 NR 7.50000 137.300 main 938 926 __________O___ -1 7.50000 137.300 2 12 270
1943351N08137 1943 87 WP MM NOT_NAMED 1943-12-17 03:00:00 NR 7.50077 136.681 main 926 920 __________P___ -1 7.50077 136.681 2 12 271
1943351N08137 1943 87 WP MM NOT_NAMED 1943-12-17 06:00:00 NR 7.51087 136.070 main 920 918 __________P___ -1 7.51087 136.070 2 12 272
1943351N08137 1943 87 WP MM NOT_NAMED 1943-12-17 09:00:00 NR 7.54053 135.474 main 918 893 __________P___ -1 7.54053 135.474 2 12 274
1943351N08137 1943 87 WP MM NOT_NAMED 1943-12-17 12:00:00 NR 7.60000 134.900 main 893 859 __________O___ -1 7.60000 134.900 2 11 278
1943351N08137 1943 87 WP MM NOT_NAMED 1943-12-17 15:00:00 NR 7.69894 134.352 main 859 794 __________P___ -1 7.69894 134.352 2 11 283
1943351N08137 1943 87 WP MM NOT_NAMED 1943-12-17 18:00:00 NR 7.84438 133.814 main 794 739 __________P___ -1 7.84438 133.814 2 11 288
1943351N08137 1943 87 WP MM NOT_NAMED 1943-12-17 21:00:00 NR 8.04264 133.270 main 739 675 __________P___ -1 8.04264 133.270 2 12 292
1943351N08137 1943 87 WP MM NOT_NAMED 1943-12-18 00:00:00 NR 8.30000 132.700 main 675 614 __________O___ -1 8.30000 132.700 2 13 296
1943351N08137 1943 87 WP MM NOT_NAMED 1943-12-18 03:00:00 NR 8.61737 132.083 main 614 556 __________P___ -1 8.61737 132.083 2 14 299
1943351N08137 1943 87 WP MM NOT_NAMED 1943-12-18 06:00:00 NR 8.98980 131.437 main 548 495 __________P___ -1 8.98980 131.437 2 15 301
1943351N08137 1943 87 WP MM NOT_NAMED 1943-12-18 09:00:00 NR 9.39231 130.773 main 499 432 __________P___ -1 9.39231 130.773 2 16 302
1943351N08137 1943 87 WP MM NOT_NAMED 1943-12-18 12:00:00 NR 9.80000 130.100 main 432 368 __________O___ -1 9.80000 130.100 2 16 300
1943351N08137 1943 87 WP MM NOT_NAMED 1943-12-18 15:00:00 NR 10.2039 129.364 main 368 310 __________P___ -1 10.2039 129.364 2 17 299
1943351N08137 1943 87 WP MM NOT_NAMED 1943-12-18 18:00:00 NR 10.6033 128.631 main 306 240 __________P___ -1 10.6033 128.631 2 16 299
1943351N08137 1943 87 WP MM NOT_NAMED 1943-12-18 21:00:00 NR 10.9759 127.958 main 240 177 __________P___ -1 10.9759 127.958 2 14 300
1943351N08137 1943 87 WP MM NOT_NAMED 1943-12-19 00:00:00 NR 11.3000 127.400 main 177 142 __________O___ -1 11.3000 127.400 2 11 302
1943351N08137 1943 87 WP MM NOT_NAMED 1943-12-19 03:00:00 NR 11.5534 127.031 main 147 134 __________P___ -1 11.5534 127.031 2 8 307
1943351N08137 1943 87 WP MM NOT_NAMED 1943-12-19 06:00:00 NR 11.7588 126.779 main 138 121 __________P___ -1 11.7588 126.779 2 6 311
1943351N08137 1943 87 WP MM NOT_NAMED 1943-12-19 09:00:00 NR 11.9349 126.587 main 121 98 __________P___ -1 11.9349 126.587 2 5 313
1943351N08137 1943 87 WP MM NOT_NAMED 1943-12-19 12:00:00 NR 12.1000 126.400 main 98 66 __________O___ -1 12.1000 126.400 2 6 307
1943351N08137 1943 87 WP MM NOT_NAMED 1943-12-19 15:00:00 NR 12.2863 126.112 main 66 46 __________P___ -1 12.2863 126.112 2 7 303
1943351N08137 1943 87 WP MM NOT_NAMED 1943-12-19 18:00:00 NR 12.4651 125.820 main 46 39 __________P___ -1 12.4651 125.820 2 7 302
1943351N08137 1943 87 WP MM NOT_NAMED 1943-12-19 21:00:00 NR 12.6363 125.543 main 31 31 __________P___ -1 12.6363 125.543 2 6 303
1943351N08137 1943 87 WP MM NOT_NAMED 1943-12-20 00:00:00 NR 12.8000 125.300 main 35 33 __________O___ -1 12.8000 125.300 2 5 307
1943351N08137 1943 87 WP MM NOT_NAMED 1943-12-20 03:00:00 NR 12.9530 125.106 main 55 55 __________P___ -1 12.9530 125.106 2 5 311
1943351N08137 1943 87 WP MM NOT_NAMED 1943-12-20 06:00:00 NR 13.0998 124.947 main 67 67 __________P___ -1 13.0998 124.947 2 4 316
1943351N08137 1943 87 WP MM NOT_NAMED 1943-12-20 09:00:00 NR 13.2468 124.815 main 70 46 __________P___ -1 13.2468 124.815 2 4 321
1943351N08137 1943 87 WP MM NOT_NAMED 1943-12-20 12:00:00 NR 13.4000 124.700 main 46 31 __________O___ -1 13.4000 124.700 2 4 324
1943351N08137 1943 87 WP MM NOT_NAMED 1943-12-20 15:00:00 NR 13.5556 124.586 main 24 10 __________P___ -1 13.5556 124.586 2 4 327
1943351N08137 1943 87 WP MM NOT_NAMED 1943-12-20 18:00:00 NR 13.7199 124.485 main 10 0 __________P___ -1 13.7199 124.485 2 4 331
1943351N08137 1943 87 WP MM NOT_NAMED 1943-12-20 21:00:00 NR 13.8993 124.392 main 0 0 __________P___ -1 13.8993 124.392 2 4 335
1943351N08137 1943 87 WP MM NOT_NAMED 1943-12-21 00:00:00 NR 14.1000 124.300 main 11 11 __________O___ -1 14.1000 124.300 2 5 333
1943351N08137 1943 87 WP MM NOT_NAMED 1943-12-21 03:00:00 NR 14.3203 124.168 main 33 33 __________P___ -1 14.3203 124.168 2 5 331
1943351N08137 1943 87 WP MM NOT_NAMED 1943-12-21 06:00:00 NR 14.5625 124.040 main 68 68 __________P___ -1 14.5625 124.040 2 6 337
1943351N08137 1943 87 WP MM NOT_NAMED 1943-12-21 09:00:00 NR 14.8235 123.943 main 92 92 __________P___ -1 14.8235 123.943 2 6 345
1943351N08137 1943 87 WP MM NOT_NAMED 1943-12-21 12:00:00 NR 15.1000 123.900 main 125 125 __________O___ -1 15.1000 123.900 2 6 0
1943351N08137 1943 87 WP MM NOT_NAMED 1943-12-21 15:00:00 NR 15.3891 123.930 main 158 158 __________P___ -1 15.3891 123.930 2 6 11
1943351N08137 1943 87 WP MM NOT_NAMED 1943-12-21 18:00:00 NR 15.6876 124.019 main 190 190 __________P___ -1 15.6876 124.019 2 6 19
1943351N08137 1943 87 WP MM NOT_NAMED 1943-12-21 21:00:00 NR 15.9923 124.149 main 198 197 __________P___ -1 15.9923 124.149 2 7 24
1943351N08137 1943 87 WP MM NOT_NAMED 1943-12-22 00:00:00 NR 16.3000 124.300 main 203 __________O___ -1 16.3000 124.300 2 7 24

デジタル台風データ・検索

IBTrACS Databaseについて

本データベースは、米国NOAAが公開する1842年以降の世界の熱帯低気圧のベストトラックデータアーカイブInternational Best Track Archive for Climate Stewardship (IBTrACS)を、ウェブで閲覧しやすい形式に変換したものです。

最終更新日:2021-10-19